createdAt,value
2023-02-06T00:02:08.876Z,7.87
2023-02-06T00:04:43.131Z,7.86
2023-02-06T00:07:16.258Z,7.85
2023-02-06T00:09:49.034Z,7.83
2023-02-06T00:12:22.294Z,7.81
2023-02-06T00:14:55.098Z,7.79
2023-02-06T00:17:27.951Z,7.79
2023-02-06T00:20:02.223Z,7.79
2023-02-06T00:22:35.607Z,7.78
2023-02-06T00:25:09.224Z,7.78
2023-02-06T00:27:42.609Z,7.77
2023-02-06T00:30:15.875Z,7.75
2023-02-06T00:32:48.966Z,7.74
2023-02-06T00:35:23.309Z,7.75
2023-02-06T00:37:56.294Z,7.73
2023-02-06T00:40:29.865Z,7.76
2023-02-06T00:43:02.821Z,7.77
2023-02-06T00:45:35.896Z,7.75
2023-02-06T00:48:10.218Z,7.77
2023-02-06T00:50:44.578Z,7.81
2023-02-06T00:53:17.720Z,7.81
2023-02-06T00:55:50.625Z,7.84
2023-02-06T00:58:23.638Z,7.85
2023-02-06T01:00:56.666Z,7.86
2023-02-06T01:03:29.698Z,7.88
2023-02-06T01:06:04.009Z,7.88
2023-02-06T01:08:37.300Z,7.87
2023-02-06T01:11:12.030Z,7.85
2023-02-06T01:13:44.965Z,7.85
2023-02-06T01:16:19.860Z,7.86
2023-02-06T01:18:52.880Z,7.85
2023-02-06T01:21:27.468Z,7.84
2023-02-06T01:24:00.393Z,7.82
2023-02-06T01:26:33.284Z,7.80
2023-02-06T01:29:06.330Z,7.80
2023-02-06T01:31:39.245Z,7.79
2023-02-06T01:34:12.660Z,7.79
2023-02-06T01:36:46.935Z,7.81
2023-02-06T01:39:19.911Z,7.79
2023-02-06T01:41:52.791Z,7.81
2023-02-06T01:44:26.640Z,7.83
2023-02-06T01:46:59.869Z,7.83
2023-02-06T01:49:37.170Z,7.87
2023-02-06T01:52:16.581Z,7.89
2023-02-06T01:54:54.626Z,7.88
2023-02-06T01:57:28.433Z,7.87
2023-02-06T02:00:05.333Z,7.89
2023-02-06T02:02:43.024Z,7.86
2023-02-06T02:05:18.855Z,7.85
2023-02-06T02:08:01.268Z,7.83
2023-02-06T02:10:34.956Z,7.80
2023-02-06T02:13:07.822Z,7.78
2023-02-06T02:15:47.717Z,7.78
2023-02-06T02:18:34.193Z,7.74
2023-02-06T02:21:43.340Z,7.72
2023-02-06T02:24:25.032Z,7.69
2023-02-06T02:27:26.788Z,7.69
2023-02-06T02:30:39.701Z,7.67
2023-02-06T02:33:45.963Z,7.66
2023-02-06T02:36:25.935Z,7.68
2023-02-06T02:39:08.210Z,7.67
2023-02-06T02:41:47.397Z,7.67
2023-02-06T02:44:28.792Z,7.67
2023-02-06T02:47:05.193Z,7.68
2023-02-06T02:49:39.355Z,7.68
2023-02-06T02:52:13.812Z,7.68
2023-02-06T02:54:46.834Z,7.68
2023-02-06T02:57:27.043Z,7.66
2023-02-06T03:00:02.460Z,7.65
2023-02-06T03:02:38.896Z,7.66
2023-02-06T03:05:13.640Z,7.62
2023-02-06T03:07:55.534Z,7.60
2023-02-06T03:10:33.621Z,7.58
2023-02-06T03:13:15.038Z,7.61
2023-02-06T03:15:56.808Z,7.62
2023-02-06T03:18:36.050Z,7.61
2023-02-06T03:21:12.454Z,7.61
2023-02-06T03:23:49.378Z,7.63
2023-02-06T03:26:27.161Z,7.65
2023-02-06T03:29:03.011Z,7.65
2023-02-06T03:31:40.223Z,7.69
2023-02-06T03:34:19.245Z,7.71
2023-02-06T03:36:54.128Z,7.72
2023-02-06T03:39:28.860Z,7.73
2023-02-06T03:42:03.535Z,7.73
2023-02-06T03:44:41.775Z,7.74
2023-02-06T03:47:17.476Z,7.72
2023-02-06T03:49:52.077Z,7.73
2023-02-06T03:52:30.262Z,7.73
2023-02-06T03:55:09.548Z,7.74
2023-02-06T03:57:45.725Z,7.73
2023-02-06T04:00:19.127Z,7.71
2023-02-06T04:02:53.700Z,7.70
2023-02-06T04:05:27.166Z,7.68
2023-02-06T04:08:00.054Z,7.66
2023-02-06T04:10:34.765Z,7.64
2023-02-06T04:13:07.710Z,7.58
2023-02-06T04:15:40.612Z,7.54
2023-02-06T04:18:13.625Z,7.48
2023-02-06T04:20:46.491Z,7.42
2023-02-06T04:23:19.737Z,7.37
2023-02-06T04:25:53.944Z,7.32
2023-02-06T04:28:27.033Z,7.25
2023-02-06T04:31:00.039Z,7.20
2023-02-06T04:33:33.027Z,7.18
2023-02-06T04:36:06.235Z,7.18
2023-02-06T04:38:39.140Z,7.16
2023-02-06T04:41:13.770Z,7.19
2023-02-06T04:43:46.625Z,7.17
2023-02-06T04:46:19.622Z,7.19
2023-02-06T04:48:52.514Z,7.16
2023-02-06T04:51:25.425Z,7.17
2023-02-06T04:53:58.339Z,7.19
2023-02-06T04:56:32.928Z,7.20
2023-02-06T04:59:06.119Z,7.17
2023-02-06T05:01:39.079Z,7.19
2023-02-06T05:04:11.987Z,7.19
2023-02-06T05:06:44.872Z,7.21
2023-02-06T05:09:17.783Z,7.22
2023-02-06T05:11:52.076Z,7.21
2023-02-06T05:14:25.187Z,7.23
2023-02-06T05:16:58.036Z,7.23
2023-02-06T05:19:30.948Z,7.21
2023-02-06T05:22:03.838Z,7.21
2023-02-06T05:24:36.787Z,7.20
2023-02-06T05:27:11.072Z,7.18
2023-02-06T05:29:43.952Z,7.13
2023-02-06T05:32:18.354Z,7.09
2023-02-06T05:34:51.313Z,7.05
2023-02-06T05:37:24.205Z,7.04
2023-02-06T05:39:59.769Z,7.01
2023-02-06T05:42:34.351Z,7.00
2023-02-06T05:45:08.188Z,6.99
2023-02-06T05:47:41.062Z,6.95
2023-02-06T05:50:14.158Z,6.96
2023-02-06T05:52:47.145Z,6.95
2023-02-06T05:55:20.360Z,6.96
2023-02-06T05:57:54.707Z,6.96
2023-02-06T06:00:27.785Z,6.95
2023-02-06T06:03:00.780Z,6.96
2023-02-06T06:05:34.200Z,6.99
2023-02-06T06:08:07.500Z,7.00
2023-02-06T06:10:40.405Z,7.02
2023-02-06T06:13:14.598Z,7.02
2023-02-06T06:15:50.688Z,7.03
2023-02-06T06:18:23.633Z,7.02
2023-02-06T06:20:56.586Z,7.04
2023-02-06T06:23:29.418Z,7.04
2023-02-06T06:26:02.390Z,7.07
2023-02-06T06:28:38.613Z,7.10
2023-02-06T06:31:12.811Z,7.12
2023-02-06T06:33:46.385Z,7.15
2023-02-06T06:36:19.408Z,7.17
2023-02-06T06:38:52.316Z,7.21
2023-02-06T06:41:25.212Z,7.23
2023-02-06T06:44:00.108Z,7.26
2023-02-06T06:46:32.992Z,7.26
2023-02-06T06:49:05.908Z,7.29
2023-02-06T06:51:38.890Z,7.28
2023-02-06T06:54:11.779Z,7.32
2023-02-06T06:56:44.627Z,7.33
2023-02-06T06:59:18.877Z,7.35
2023-02-06T07:01:52.681Z,7.39
2023-02-06T07:04:29.526Z,7.40
2023-02-06T07:07:02.396Z,7.39
2023-02-06T07:09:35.468Z,7.40
2023-02-06T07:12:08.732Z,7.39
2023-02-06T07:14:42.938Z,7.38
2023-02-06T07:17:15.803Z,7.37
2023-02-06T07:19:51.463Z,7.39
2023-02-06T07:22:25.609Z,7.37
2023-02-06T07:24:58.691Z,7.38
2023-02-06T07:27:31.547Z,7.39
2023-02-06T07:30:06.654Z,7.41
2023-02-06T07:32:40.590Z,7.37
2023-02-06T07:35:15.298Z,7.35
2023-02-06T07:37:48.187Z,7.33
2023-02-06T07:40:21.275Z,7.30
2023-02-06T07:42:54.224Z,7.28
2023-02-06T07:45:28.523Z,7.24
2023-02-06T07:48:04.533Z,7.22
2023-02-06T07:50:37.733Z,7.21
2023-02-06T07:53:10.630Z,7.22
2023-02-06T07:55:43.498Z,7.20
2023-02-06T07:58:16.422Z,7.20
2023-02-06T08:00:50.713Z,7.20
2023-02-06T08:03:23.683Z,7.23
2023-02-06T08:05:56.662Z,7.25
2023-02-06T08:08:29.614Z,7.23
2023-02-06T08:11:06.059Z,7.25
2023-02-06T08:13:39.016Z,7.23
2023-02-06T08:16:16.534Z,7.23
2023-02-06T08:18:49.472Z,7.24
2023-02-06T08:21:23.545Z,7.25
2023-02-06T08:23:57.308Z,7.30
2023-02-06T08:26:31.392Z,7.32
2023-02-06T08:29:06.518Z,7.33
2023-02-06T08:31:42.977Z,7.35
2023-02-06T08:34:16.502Z,7.37
2023-02-06T08:36:49.435Z,7.38
2023-02-06T08:39:22.352Z,7.39
2023-02-06T08:41:55.249Z,7.36
2023-02-06T08:44:28.153Z,7.35
2023-02-06T08:47:09.971Z,7.35
2023-02-06T08:49:43.432Z,7.35
2023-02-06T08:52:16.298Z,7.34
2023-02-06T08:54:51.210Z,7.36
2023-02-06T08:57:24.148Z,7.35
2023-02-06T08:59:57.104Z,7.36
2023-02-06T09:02:31.673Z,7.40
2023-02-06T09:05:05.573Z,7.41
2023-02-06T09:07:38.424Z,7.42
2023-02-06T09:10:26.713Z,7.43
2023-02-06T09:13:00.482Z,7.47
2023-02-06T09:15:33.351Z,7.46
2023-02-06T09:18:07.708Z,7.45
2023-02-06T09:20:40.657Z,7.43
2023-02-06T09:23:13.546Z,7.42
2023-02-06T09:25:46.758Z,7.39
2023-02-06T09:28:19.673Z,7.36
2023-02-06T09:30:52.705Z,7.39
2023-02-06T09:33:27.488Z,7.43
2023-02-06T09:36:04.344Z,7.49
2023-02-06T09:38:39.396Z,7.54
2023-02-06T09:41:18.103Z,7.60
2023-02-06T09:43:53.437Z,7.70
2023-02-06T09:46:31.474Z,7.78
2023-02-06T09:49:12.886Z,7.87
2023-02-06T09:52:00.652Z,7.97
2023-02-06T09:54:43.143Z,8.07
2023-02-06T09:57:20.883Z,8.15
2023-02-06T10:00:00.561Z,8.24
2023-02-06T10:02:51.688Z,8.35
2023-02-06T10:05:42.306Z,8.42
2023-02-06T10:08:20.593Z,8.48
2023-02-06T10:10:56.183Z,8.50
2023-02-06T10:13:34.036Z,8.50
2023-02-06T10:16:16.498Z,8.51
2023-02-06T10:18:53.036Z,8.50
2023-02-06T10:21:32.632Z,8.48
2023-02-06T10:24:14.846Z,8.48
2023-02-06T10:26:49.045Z,8.43
2023-02-06T10:29:26.623Z,8.43
2023-02-06T10:32:11.609Z,8.38
2023-02-06T10:35:02.250Z,8.35
2023-02-06T10:38:06.409Z,8.33
2023-02-06T10:40:47.372Z,8.31
2023-02-06T10:43:31.038Z,8.32
2023-02-06T10:46:19.935Z,8.34
2023-02-06T10:48:59.792Z,8.33
2023-02-06T10:51:34.907Z,8.33
2023-02-06T10:54:17.062Z,8.42
2023-02-06T10:56:52.478Z,8.48
2023-02-06T10:59:30.145Z,8.59
2023-02-06T11:02:19.212Z,8.73
2023-02-06T11:04:57.074Z,8.87
2023-02-06T11:07:32.778Z,9.01
2023-02-06T11:10:08.103Z,9.14
2023-02-06T11:12:44.314Z,9.23
2023-02-06T11:15:24.820Z,9.27
2023-02-06T11:17:58.006Z,9.28
2023-02-06T11:20:34.033Z,9.31
2023-02-06T11:23:17.915Z,9.34
2023-02-06T11:26:06.158Z,9.43
2023-02-06T11:28:42.750Z,9.53
2023-02-06T11:31:15.904Z,9.63
2023-02-06T11:33:51.769Z,9.77
2023-02-06T11:36:28.735Z,9.86
2023-02-06T11:39:03.881Z,9.97
2023-02-06T11:41:38.535Z,10.04
2023-02-06T11:44:15.583Z,10.08
2023-02-06T11:46:48.439Z,10.13
2023-02-06T11:49:27.002Z,10.17
2023-02-06T11:52:01.379Z,10.17
2023-02-06T11:54:35.957Z,10.17
2023-02-06T11:57:22.652Z,10.16
2023-02-06T11:59:57.352Z,10.10
2023-02-06T12:02:33.053Z,10.07
2023-02-06T12:05:13.075Z,10.04
2023-02-06T12:07:50.769Z,9.95
2023-02-06T12:10:25.344Z,9.89
2023-02-06T12:13:08.057Z,9.79
2023-02-06T12:15:47.528Z,9.74
2023-02-06T12:18:36.179Z,9.71
2023-02-06T12:21:15.845Z,9.66
2023-02-06T12:23:53.564Z,9.66
2023-02-06T12:26:29.791Z,9.68
2023-02-06T12:29:13.167Z,9.66
2023-02-06T12:31:56.810Z,9.60
2023-02-06T12:34:42.578Z,9.54
2023-02-06T12:37:21.617Z,9.50
2023-02-06T12:39:54.530Z,9.43
2023-02-06T12:42:39.468Z,9.37
2023-02-06T12:45:23.031Z,9.25
2023-02-06T12:48:00.631Z,9.15
2023-02-06T12:50:39.419Z,9.02
2023-02-06T12:53:18.675Z,8.95
2023-02-06T12:55:59.024Z,8.91
2023-02-06T12:58:47.153Z,8.91
2023-02-06T13:01:34.756Z,8.99
2023-02-06T13:04:14.228Z,9.07
2023-02-06T13:06:53.229Z,9.11
2023-02-06T13:09:30.153Z,9.12
2023-02-06T13:12:16.045Z,9.17
2023-02-06T13:14:50.982Z,9.16
2023-02-06T13:17:27.876Z,9.18
2023-02-06T13:20:07.977Z,9.19
2023-02-06T13:22:46.339Z,9.19
2023-02-06T13:25:52.508Z,9.16
2023-02-06T13:28:58.193Z,9.14
2023-02-06T13:31:34.502Z,9.09
2023-02-06T13:34:16.956Z,9.10
2023-02-06T13:36:53.463Z,9.09
2023-02-06T13:39:34.422Z,9.08
2023-02-06T13:42:29.350Z,9.07
2023-02-06T13:45:06.369Z,9.03
2023-02-06T13:48:14.159Z,8.95
2023-02-06T13:51:05.323Z,8.88
2023-02-06T13:53:54.773Z,8.81
2023-02-06T13:56:46.410Z,8.76
2023-02-06T13:59:22.951Z,8.69
2023-02-06T14:01:56.631Z,8.66
2023-02-06T14:04:33.442Z,8.66
2023-02-06T14:07:45.332Z,8.62
2023-02-06T14:10:36.143Z,8.56
2023-02-06T14:13:29.699Z,8.55
2023-02-06T14:16:18.407Z,8.51
2023-02-06T14:18:58.129Z,8.45
2023-02-06T14:21:43.403Z,8.41
2023-02-06T14:24:40.105Z,8.36
2023-02-06T14:27:29.739Z,8.28
2023-02-06T14:30:16.634Z,8.20
2023-02-06T14:32:58.323Z,8.14
2023-02-06T14:35:57.768Z,8.09
2023-02-06T14:38:58.847Z,8.04
2023-02-06T14:41:39.319Z,7.99
2023-02-06T14:44:19.173Z,7.93
2023-02-06T14:46:52.280Z,7.88
2023-02-06T14:49:32.484Z,7.86
2023-02-06T14:52:06.910Z,7.81
2023-02-06T14:54:39.989Z,7.77
2023-02-06T14:57:19.960Z,7.74
2023-02-06T14:59:55.862Z,7.67
2023-02-06T15:02:32.386Z,7.62
2023-02-06T15:05:06.748Z,7.55
2023-02-06T15:07:40.004Z,7.49
2023-02-06T15:10:16.172Z,7.46
2023-02-06T15:12:54.144Z,7.45
2023-02-06T15:15:29.229Z,7.41
2023-02-06T15:18:04.592Z,7.38
2023-02-06T15:20:40.317Z,7.33
2023-02-06T15:23:18.706Z,7.34
2023-02-06T15:26:03.964Z,7.33
2023-02-06T15:28:39.468Z,7.31
2023-02-06T15:31:19.106Z,7.31
2023-02-06T15:33:55.197Z,7.30
2023-02-06T15:36:32.366Z,7.29
2023-02-06T15:39:07.809Z,7.30
2023-02-06T15:41:42.448Z,7.27
2023-02-06T15:44:25.291Z,7.30
2023-02-06T15:46:59.199Z,7.29
2023-02-06T15:49:38.126Z,7.33
2023-02-06T15:52:12.172Z,7.29
2023-02-06T15:54:58.542Z,7.26
2023-02-06T15:57:34.095Z,7.24
2023-02-06T16:00:23.541Z,7.22
2023-02-06T16:03:02.816Z,7.18
2023-02-06T16:05:38.511Z,7.14
2023-02-06T16:08:17.581Z,7.13
2023-02-06T16:10:52.604Z,7.09
2023-02-06T16:13:28.844Z,7.08
2023-02-06T16:16:07.582Z,7.00
2023-02-06T16:18:42.653Z,6.96
2023-02-06T16:21:24.744Z,6.93
2023-02-06T16:24:08.056Z,6.88
2023-02-06T16:26:44.642Z,6.80
2023-02-06T16:29:26.164Z,6.78
2023-02-06T16:32:02.976Z,6.73
2023-02-06T16:34:40.666Z,6.69
2023-02-06T16:37:15.315Z,6.65
2023-02-06T16:39:48.721Z,6.62
2023-02-06T16:42:24.024Z,6.58
2023-02-06T16:45:01.525Z,6.57
2023-02-06T16:47:35.951Z,6.52
2023-02-06T16:50:10.536Z,6.49
2023-02-06T16:52:49.385Z,6.44
2023-02-06T16:55:24.615Z,6.38
2023-02-06T16:58:00.686Z,6.35
2023-02-06T17:00:33.752Z,6.29
2023-02-06T17:03:08.124Z,6.28
2023-02-06T17:05:41.764Z,6.24
2023-02-06T17:08:17.621Z,6.23
2023-02-06T17:10:51.297Z,6.20
2023-02-06T17:13:25.746Z,6.16
2023-02-06T17:15:58.790Z,6.12
2023-02-06T17:18:33.179Z,6.08
2023-02-06T17:21:06.414Z,6.03
2023-02-06T17:23:39.339Z,5.99
2023-02-06T17:26:14.268Z,5.98
2023-02-06T17:28:47.711Z,5.94
2023-02-06T17:31:21.870Z,5.91
2023-02-06T17:33:56.268Z,5.90
2023-02-06T17:36:32.469Z,5.86
2023-02-06T17:39:05.576Z,5.86
2023-02-06T17:41:38.540Z,5.82
2023-02-06T17:44:12.015Z,5.83
2023-02-06T17:46:45.729Z,5.83
2023-02-06T17:49:20.086Z,5.83
2023-02-06T17:51:53.074Z,5.82
2023-02-06T17:54:25.981Z,5.82
2023-02-06T17:56:59.226Z,5.80
2023-02-06T17:59:32.139Z,5.81
2023-02-06T18:02:05.251Z,5.77
2023-02-06T18:04:39.503Z,5.78
2023-02-06T18:07:12.591Z,5.78
2023-02-06T18:09:45.541Z,5.77
2023-02-06T18:12:19.036Z,5.76
2023-02-06T18:14:51.962Z,5.77
2023-02-06T18:17:24.984Z,5.78
2023-02-06T18:19:59.573Z,5.78
2023-02-06T18:22:38.822Z,5.79
2023-02-06T18:25:15.263Z,5.81
2023-02-06T18:27:48.237Z,5.81
2023-02-06T18:30:21.236Z,5.81
2023-02-06T18:32:54.195Z,5.83
2023-02-06T18:35:28.929Z,5.81
2023-02-06T18:38:01.958Z,5.80
2023-02-06T18:40:35.062Z,5.79
2023-02-06T18:43:07.676Z,5.79
2023-02-06T18:45:41.746Z,5.80
2023-02-06T18:48:15.013Z,5.79
2023-02-06T18:50:49.339Z,5.81
2023-02-06T18:53:22.272Z,5.81
2023-02-06T18:56:00.824Z,5.83
2023-02-06T18:58:34.784Z,5.81
2023-02-06T19:01:13.146Z,5.82
2023-02-06T19:03:47.299Z,5.82
2023-02-06T19:06:24.098Z,5.81
2023-02-06T19:09:00.122Z,5.78
2023-02-06T19:11:33.334Z,5.78
2023-02-06T19:14:10.000Z,5.75
2023-02-06T19:16:44.661Z,5.72
2023-02-06T19:19:18.324Z,5.67
2023-02-06T19:21:52.628Z,5.65
2023-02-06T19:24:26.314Z,5.64
2023-02-06T19:26:59.271Z,5.61
2023-02-06T19:29:36.132Z,5.58
2023-02-06T19:32:10.697Z,5.56
2023-02-06T19:34:45.295Z,5.52
2023-02-06T19:37:19.613Z,5.49
2023-02-06T19:39:52.636Z,5.43
2023-02-06T19:42:25.720Z,5.39
2023-02-06T19:44:58.718Z,5.34
2023-02-06T19:47:31.589Z,5.31
2023-02-06T19:50:04.813Z,5.27
2023-02-06T19:52:39.097Z,5.25
2023-02-06T19:55:12.347Z,5.19
2023-02-06T19:57:45.230Z,5.15
2023-02-06T20:00:18.608Z,5.10
2023-02-06T20:02:51.937Z,5.05
2023-02-06T20:05:27.181Z,5.03
2023-02-06T20:08:01.562Z,5.01
2023-02-06T20:10:34.572Z,5.01
2023-02-06T20:13:08.337Z,4.98
2023-02-06T20:15:41.453Z,4.94
2023-02-06T20:18:14.382Z,4.92
2023-02-06T20:20:48.126Z,4.91
2023-02-06T20:23:22.408Z,4.87
2023-02-06T20:25:56.031Z,4.84
2023-02-06T20:28:29.043Z,4.79
2023-02-06T20:31:09.152Z,4.77
2023-02-06T20:33:42.551Z,4.71
2023-02-06T20:36:17.916Z,4.64
2023-02-06T20:38:54.025Z,4.60
2023-02-06T20:41:29.725Z,4.57
2023-02-06T20:44:02.698Z,4.52
2023-02-06T20:46:36.908Z,4.50
2023-02-06T20:49:15.065Z,4.49
2023-02-06T20:51:49.061Z,4.44
2023-02-06T20:54:23.626Z,4.45
2023-02-06T20:56:56.618Z,4.43
2023-02-06T20:59:29.534Z,4.42
2023-02-06T21:02:02.448Z,4.41
2023-02-06T21:04:35.464Z,4.38
2023-02-06T21:07:08.669Z,4.33
2023-02-06T21:09:43.124Z,4.27
2023-02-06T21:12:16.657Z,4.19
2023-02-06T21:14:49.511Z,4.11
2023-02-06T21:17:22.493Z,4.04
2023-02-06T21:19:55.406Z,4.00
2023-02-06T21:22:28.345Z,3.97
2023-02-06T21:25:02.628Z,3.95
2023-02-06T21:27:35.870Z,3.94
2023-02-06T21:30:12.211Z,3.95
2023-02-06T21:32:45.135Z,3.94
2023-02-06T21:35:18.113Z,3.92
2023-02-06T21:37:51.080Z,3.90
2023-02-06T21:40:25.721Z,3.89
2023-02-06T21:42:58.610Z,3.85
2023-02-06T21:45:31.483Z,3.79
2023-02-06T21:48:04.928Z,3.73
2023-02-06T21:50:39.590Z,3.67
2023-02-06T21:53:12.890Z,3.60
2023-02-06T21:55:47.489Z,3.55
2023-02-06T21:58:20.481Z,3.46
2023-02-06T22:00:53.385Z,3.38
2023-02-06T22:03:26.815Z,3.29
2023-02-06T22:06:08.508Z,3.25
2023-02-06T22:08:43.078Z,3.15
2023-02-06T22:11:19.450Z,3.10
2023-02-06T22:13:53.204Z,3.00
2023-02-06T22:16:26.796Z,2.95
2023-02-06T22:19:00.783Z,2.92
2023-02-06T22:21:35.099Z,2.90
2023-02-06T22:24:09.635Z,2.88
2023-02-06T22:26:44.716Z,2.86
2023-02-06T22:29:18.624Z,2.82
2023-02-06T22:31:51.458Z,2.78
2023-02-06T22:34:24.706Z,2.78
2023-02-06T22:36:57.822Z,2.75
2023-02-06T22:39:30.833Z,2.74
2023-02-06T22:42:05.338Z,2.76
2023-02-06T22:44:38.387Z,2.74
2023-02-06T22:47:11.270Z,2.75
2023-02-06T22:49:44.480Z,2.74
2023-02-06T22:52:34.573Z,2.69
2023-02-06T22:55:09.503Z,2.68
2023-02-06T22:57:43.734Z,2.63
2023-02-06T23:00:18.568Z,2.60
2023-02-06T23:02:51.424Z,2.59
2023-02-06T23:05:25.726Z,2.59
2023-02-06T23:07:58.644Z,2.62
2023-02-06T23:10:31.505Z,2.63
2023-02-06T23:13:05.770Z,2.68
2023-02-06T23:15:41.292Z,2.69
2023-02-06T23:18:14.533Z,2.72
2023-02-06T23:20:47.551Z,2.73
2023-02-06T23:23:20.494Z,2.74
2023-02-06T23:25:53.687Z,2.76
2023-02-06T23:28:28.290Z,2.76
2023-02-06T23:31:01.353Z,2.74
2023-02-06T23:33:34.825Z,2.71
2023-02-06T23:36:10.469Z,2.68
2023-02-06T23:38:44.237Z,2.62
2023-02-06T23:41:19.822Z,2.58
2023-02-06T23:43:56.993Z,2.53
2023-02-06T23:46:32.513Z,2.47
2023-02-06T23:49:06.468Z,2.41
2023-02-06T23:51:39.433Z,2.35
2023-02-06T23:54:12.478Z,2.30
2023-02-06T23:56:45.454Z,2.25
2023-02-06T23:59:19.680Z,2.19
